Latest Weather Observations for Cape Moreton

IDQ60801

Issued at 8:03 pm EST Tuesday 27 September 2016 (issued every 30 minutes, with the page automatically refreshed every 10 minutes)

About weather observations | Map of weather stations | Latest weather observations for QLD | Other Formats
Station Details ID: 040043 Name: CAPE MORETON LIGHTHOUSE Lat: -27.03 Lon: 153.47 Height: 99.9 m
Data from the previous 72 hours. | See also: Recent months at Cape Moreton
Date/Time
EST
Temp
°C
App
Temp
°C
Dew
Point
°C
Rel
Hum
%
Delta-T
°C
Wind Press
QNH
hPa
Press
MSL
hPa
Rain since
9am
mm
Dir  Spd
km/h
Gust
km/h
Spd
kts
Gust
kts
27/08:00pm 19.7 16.0 10.1 54 5.2 NNW 20 28 11 15 1013.0 1012.7 0.0
27/07:30pm 19.5 15.5 10.5 56 4.9 N 22 28 12 15 1012.8 1012.5 0.0
27/07:00pm 19.2 16.0 9.9 55 5.0 N 17 22 9 12 1012.7 1012.4 0.0
27/06:30pm 19.0 15.2 9.2 53 5.2 NNE 19 24 10 13 1012.1 1011.9 0.0
27/06:00pm 19.0 15.0 8.9 52 5.3 NNE 20 26 11 14 1011.8 1011.6 0.0
27/05:30pm 19.0 14.8 8.4 50 5.5 NE 20 26 11 14 1011.5 1011.3 0.0
27/05:00pm 19.2 15.1 7.9 48 5.8 NE 19 24 10 13 1011.3 1011.1 0.0
27/04:30pm 19.1 14.7 7.5 47 5.9 NE 20 24 11 13 1011.3 1011.1 0.0
27/04:00pm 19.2 15.0 7.3 46 6.1 NE 19 24 10 13 1011.3 1011.1 0.0
27/03:30pm 19.5 15.8 6.3 42 6.6 NE 15 19 8 10 1011.3 1011.1 0.0
27/03:00pm 20.0 16.7 6.4 41 6.9 ENE 13 17 7 9 1011.9 1011.7 0.0
27/02:30pm 20.6 17.4 6.9 41 7.0 ENE 13 19 7 10 1011.7 1011.5 0.0
27/02:00pm 20.8 17.7 7.1 41 7.0 ENE 13 15 7 8 1012.4 1012.2 0.0
27/01:30pm 21.4 18.1 8.0 42 7.0 SE 15 17 8 9 1012.8 1012.5 0.0
27/01:00pm 20.9 17.3 8.2 44 6.7 SE 17 20 9 11 1013.2 1012.9 0.0
27/12:30pm 21.1 17.2 7.3 41 7.1 SE 17 24 9 13 1013.2 1012.9 0.0
27/12:00pm 20.8 16.7 6.4 39 7.3 SSE 17 24 9 13 1013.5 1013.2 0.0
27/11:30am 21.0 17.2 5.8 37 7.6 SSE 15 26 8 14 1014.0 1013.7 0.0
27/11:00am 21.1 16.9 5.5 36 7.8 SSW 17 30 9 16 1014.3 1014.0 0.0
27/10:30am 19.0 13.2 4.4 38 7.0 SSW 24 33 13 18 1014.5 1014.2 0.0
27/10:00am 19.2 13.7 6.0 42 6.6 SW 24 35 13 19 1014.5 1014.2 0.0
27/09:30am 20.0 13.5 4.9 37 7.4 SW 28 41 15 22 1014.7 1014.4 0.0
27/09:00am 19.7 13.5 6.1 41 6.8 SW 28 43 15 23 1014.7 1014.4 0.0
27/08:30am 19.6 13.7 6.0 41 6.8 SW 26 44 14 24 1014.6 1014.3 0.0
27/08:12am 18.6 11.9 5.5 42 6.4 SW 30 48 16 26 1014.2 1013.9 0.0
27/08:00am 18.9 13.6 6.7 45 6.1 SW 24 43 13 23 1014.6 1014.3 0.0
27/07:30am 18.2 13.3 6.7 47 5.8 SW 22 33 12 18 1014.0 1013.7 0.0
27/07:00am 17.5 13.3 7.3 51 5.1 SW 19 30 10 16 1013.5 1013.2 0.0
27/06:30am 17.0 11.3 6.8 51 5.1 SW 26 35 14 19 1013.1 1012.8 0.0
27/06:00am 16.5 11.9 6.6 52 4.9 SW 20 28 11 15 1012.9 1012.6 0.0
27/05:30am 16.9 12.0 7.0 52 4.9 SW 22 35 12 19 1012.3 1012.1 0.0
27/05:00am 17.2 10.4 7.0 51 5.1 SW 32 43 17 23 1011.6 1011.4 0.0
27/04:30am 17.4 10.4 6.9 50 5.2 SW 33 44 18 24 1011.4 1011.2 0.0
27/04:00am 17.4 12.1 6.9 50 5.3 SW 24 39 13 21 1011.5 1011.3 0.0
27/03:30am 17.5 13.4 7.8 53 4.9 SW 19 33 10 18 1011.5 1011.3 0.0
27/03:00am 17.2 14.4 8.6 57 4.4 WSW 13 20 7 11 1011.6 1011.4 0.0
27/02:30am 17.7 13.8 8.8 56 4.6 SW 19 30 10 16 1011.8 1011.6 0.0
27/02:00am 18.0 13.3 9.1 56 4.7 WSW 24 37 13 20 1011.8 1011.6 0.0
27/01:30am 18.1 14.1 9.2 56 4.7 WSW 20 32 11 17 1012.1 1011.9 0.0
27/01:00am 17.9 15.2 10.5 62 4.0 SW 15 20 8 11 1012.0 1011.8 0.0
27/12:30am 18.3 15.3 12.1 67 3.4 SW 19 26 10 14 1012.3 1012.1 0.0
27/12:00am 18.8 16.5 14.1 74 2.7 WSW 19 24 10 13 1012.3 1012.1 0.0
 
Date/Time
EST
Temp
°C
App
Temp
°C
Dew
Point
°C
Rel
Hum
%
Delta-T
°C
Wind Press
QNH
hPa
Press
MSL
hPa
Rain since
9am
mm
Dir  Spd
km/h
Gust
km/h
Spd
kts
Gust
kts
26/11:30pm 18.9 16.0 15.0 78 2.3 WNW 24 33 13 18 1012.8 1012.5 0.0
26/11:00pm 19.2 16.8 15.5 79 2.2 WNW 22 33 12 18 1012.7 1012.4 0.0
26/10:30pm 19.4 17.7 16.2 82 1.9 WNW 20 30 11 16 1012.7 1012.4 0.0
26/10:00pm 20.0 17.2 15.4 75 2.7 NW 24 33 13 18 1012.8 1012.5 0.0
26/09:30pm 20.1 17.2 15.1 73 3.0 NW 24 28 13 15 1012.7 1012.4 0.0
26/09:00pm 20.0 18.0 15.4 75 2.7 NNW 20 26 11 14 1012.4 1012.2 0.0
26/08:30pm 19.9 18.0 15.1 74 2.8 NNW 19 26 10 14 1012.3 1012.1 0.0
26/08:00pm 20.1 18.0 15.1 73 3.0 NNW 20 30 11 16 1012.1 1011.9 0.0
26/07:30pm 20.1 16.6 14.5 70 3.3 N 26 30 14 16 1011.8 1011.6 0.0
26/07:00pm 19.9 17.4 14.0 69 3.4 N 20 26 11 14 1011.4 1011.2 0.0
26/06:30pm 20.0 16.8 13.0 64 4.0 NNE 22 28 12 15 1011.1 1010.9 0.0
26/06:00pm 19.8 16.9 13.0 65 3.9 NNE 20 26 11 14 1011.0 1010.8 0.0
26/05:30pm 20.0 17.1 13.0 64 4.0 NE 20 26 11 14 1010.7 1010.5 0.0
26/05:00pm 20.1 17.3 13.1 64 4.0 NE 20 26 11 14 1010.5 1010.3 0.0
26/04:30pm 20.2 16.9 12.7 62 4.3 ENE 22 26 12 14 1010.2 1010.0 0.0
26/04:00pm 20.4 17.2 13.1 63 4.2 ENE 22 26 12 14 1009.9 1009.7 0.0
26/03:30pm 20.4 16.8 11.9 58 4.8 ENE 22 26 12 14 1010.0 1009.8 0.0
26/03:00pm 20.8 17.2 12.0 57 4.9 ENE 22 24 12 13 1010.0 1009.8 0.0
26/02:30pm 21.9 18.9 11.9 53 5.6 E 19 20 10 11 1010.3 1010.1 0.0
26/02:00pm 22.1 19.0 12.1 53 5.7 E 20 22 11 12 1010.4 1010.2 0.0
26/01:30pm 22.9 20.5 12.5 52 6.0 E 17 20 9 11 1010.9 1010.7 0.0
26/01:00pm 22.7 20.5 12.0 50 6.1 E 15 19 8 10 1011.5 1011.3 0.0
26/12:30pm 22.9 20.6 11.9 50 6.2 ESE 15 19 8 10 1012.0 1011.8 0.0
26/12:00pm 23.1 20.0 11.5 48 6.5 SE 19 20 10 11 1012.2 1012.0 0.0
26/11:30am 23.4 20.3 11.5 47 6.7 SE 19 22 10 12 1012.7 1012.4 0.0
26/11:00am 23.1 20.4 11.8 49 6.4 SE 17 20 9 11 1012.9 1012.6 0.0
26/10:30am 23.0 19.8 11.4 48 6.5 SE 19 22 10 12 1013.3 1013.0 0.0
26/10:00am 23.5 20.5 11.9 48 6.6 SE 19 22 10 12 1013.5 1013.2 0.0
26/09:30am 22.8 20.1 10.3 45 6.9 SSE 15 20 8 11 1013.7 1013.4 0.0
26/09:00am 22.0 19.8 10.8 49 6.2 SSW 13 20 7 11 1013.8 1013.5 0.0
26/08:30am 21.5 18.7 11.5 53 5.6 SW 17 24 9 13 1013.6 1013.3 0.0
26/08:00am 20.6 17.7 11.0 54 5.3 SSW 17 26 9 14 1013.4 1013.1 0.0
26/07:30am 19.8 16.3 11.0 57 4.8 SW 20 33 11 18 1013.0 1012.7 0.0
26/07:00am 19.2 15.8 11.3 60 4.3 SW 20 33 11 18 1012.4 1012.2 0.0
26/06:30am 17.7 14.4 11.0 65 3.6 SW 19 26 10 14 1012.0 1011.8 0.0
26/06:00am 16.7 13.7 10.5 67 3.3 SW 17 22 9 12 1011.7 1011.5 0.0
26/05:30am 16.7 13.5 10.1 65 3.5 SW 17 24 9 13 1011.5 1011.3 0.0
26/05:00am 17.1 13.3 9.8 62 3.9 SW 20 28 11 15 1011.2 1011.0 0.0
26/04:30am 17.5 12.9 9.7 60 4.1 SW 24 33 13 18 1010.9 1010.7 0.0
26/04:00am 17.7 13.8 9.3 58 4.4 SW 20 33 11 18 1010.8 1010.6 0.0
26/03:30am 18.0 13.5 9.9 59 4.3 SW 24 33 13 18 1010.5 1010.3 0.0
26/03:00am 17.6 14.8 10.0 61 4.0 SW 15 24 8 13 1010.3 1010.1 0.0
26/02:30am 17.8 15.4 9.9 60 4.2 SW 13 22 7 12 1010.2 1010.0 0.0
26/02:00am 18.2 14.5 10.1 59 4.3 SW 20 28 11 15 1010.2 1010.0 0.0
26/01:30am 18.5 13.3 10.1 58 4.5 SW 28 39 15 21 1010.0 1009.8 0.0
26/01:00am 18.7 15.6 10.3 58 4.5 SW 17 26 9 14 1010.6 1010.4 0.0
26/12:30am 19.2 14.2 9.7 54 5.1 SW 26 35 14 19 1010.4 1010.2 0.0
26/12:00am 19.6 15.0 9.5 52 5.4 SW 24 37 13 20 1010.5 1010.3 0.0
 
Date/Time
EST
Temp
°C
App
Temp
°C
Dew
Point
°C
Rel
Hum
%
Delta-T
°C
Wind Press
QNH
hPa
Press
MSL
hPa
Rain since
9am
mm
Dir  Spd
km/h
Gust
km/h
Spd
kts
Gust
kts
25/11:30pm 20.2 14.7 9.2 49 5.8 SW 28 43 15 23 1010.6 1010.4 0.0
25/11:02pm 20.5 14.1 8.5 46 6.3 SW 32 50 17 27 1010.3 1010.1 0.0
25/11:00pm 20.7 14.1 8.7 46 6.3 SW 33 50 18 27 1010.3 1010.1 0.0
25/10:56pm 20.8 14.4 8.4 45 6.5 SW 32 50 17 27 1010.3 1010.1 0.0
25/10:30pm 20.7 15.1 8.7 46 6.3 SW 28 41 15 22 1010.4 1010.2 0.0
25/10:00pm 21.0 16.9 8.6 45 6.6 SW 20 28 11 15 1010.7 1010.5 0.0
25/09:30pm 21.6 16.3 8.5 43 6.9 SW 26 39 14 21 1010.5 1010.3 0.0
25/09:00pm 22.1 15.0 8.2 41 7.3 SW 35 54 19 29 1010.0 1009.8 0.0
25/08:59pm 22.1 15.0 8.2 41 7.3 SW 35 54 19 29 1010.0 1009.8 0.0
25/08:30pm 22.3 15.8 9.1 43 7.1 SW 33 48 18 26 1009.6 1009.4 0.0
25/08:06pm 22.6 16.5 9.7 44 7.0 SW 32 50 17 27 1009.1 1008.8 0.0
25/08:00pm 22.6 16.6 10.1 45 6.9 SW 32 46 17 25 1008.9 1008.6 0.0
25/07:39pm 22.7 17.4 11.1 48 6.5 SW 30 48 16 26 1008.8 1008.5 0.0
25/07:30pm 22.9 17.0 11.0 47 6.6 SW 33 46 18 25 1008.6 1008.3 0.0
25/07:00pm 22.6 18.6 13.1 55 5.5 SW 26 39 14 21 1008.1 1007.8 0.0
25/06:30pm 22.4 20.2 14.5 61 4.7 WSW 19 28 10 15 1007.8 1007.5 0.0
25/06:00pm 22.6 20.7 14.2 59 5.0 WSW 17 20 9 11 1007.5 1007.2 0.0
25/05:30pm 23.3 22.6 14.3 57 5.3 WSW 11 13 6 7 1006.9 1006.6 0.0
25/05:00pm 24.4 24.0 15.3 57 5.5 SW 11 15 6 8 1006.4 1006.1 0.0
25/04:30pm 25.1 23.5 15.1 53 6.0 SW 17 20 9 11 1006.3 1006.0 0.0
25/04:00pm 23.5 24.1 16.8 66 4.1 NW 9 11 5 6 1006.1 1005.8 0.0
25/03:30pm 22.9 23.5 17.8 73 3.2 NNW 11 15 6 8 1005.9 1005.6 0.0
25/03:00pm 22.3 22.6 17.9 76 2.8 N 13 15 7 8 1005.7 1005.4 0.0
25/02:30pm 22.0 22.3 17.8 77 2.6 NNW 13 20 7 11 1005.8 1005.5 0.0
25/02:00pm 22.6 22.7 18.4 77 2.7 NNW 15 17 8 9 1006.0 1005.7 0.0
25/01:30pm 21.9 21.9 17.1 74 3.0 NNW 13 17 7 9 1006.2 1005.9 0.0
25/01:00pm 22.2 21.8 16.2 69 3.7 NW 13 17 7 9 1006.5 1006.2 0.0
25/12:30pm 23.0 22.6 16.1 65 4.2 NW 13 17 7 9 1006.7 1006.4 0.0
25/12:00pm 23.2 21.7 13.1 53 5.9 WNW 13 20 7 11 1007.1 1006.8 0.0
25/11:30am 22.8 20.9 14.1 58 5.1 W 17 24 9 13 1007.7 1007.4 0.0
25/11:00am 22.7 21.9 15.0 61 4.6 WNW 13 19 7 10 1008.2 1007.9 0.0
25/10:30am 20.7 19.7 15.7 73 3.0 NW 15 20 8 11 1008.6 1008.3 0.0
25/10:00am 20.4 20.2 16.6 79 2.3 WNW 13 17 7 9 1009.0 1008.7 0.0
25/09:30am 19.7 19.3 16.3 81 2.0 W 13 17 7 9 1009.6 1009.4 0.0
25/09:00am 19.7 20.2 16.5 82 1.9 W 9 13 5 7 1009.7 1009.5 0.0
25/08:30am 20.0 20.4 16.4 80 2.2 WSW 9 15 5 8 1009.8 1009.6 0.0
25/08:00am 20.1 20.3 15.7 76 2.6 WSW 9 17 5 9 1010.1 1009.9 0.0
25/07:30am 19.4 20.1 16.2 82 1.9 WSW 7 13 4 7 1010.3 1010.1 0.0
25/07:00am 18.7 18.6 17.0 90 1.0 WSW 13 19 7 10 1010.2 1010.0 0.0
25/06:30am 18.3 17.0 16.8 91 0.9 W 19 24 10 13 1009.7 1009.5 0.0
25/06:00am 18.4 17.0 16.6 89 1.1 W 19 22 10 12 1009.4 1009.1 0.0
25/05:30am 18.3 16.7 16.6 90 1.0 WNW 20 24 11 13 1009.1 1008.8 0.0
25/05:00am 18.6 17.4 17.4 93 0.7 WNW 20 28 11 15 1008.8 1008.5 0.0
25/04:30am 18.9 17.8 17.7 93 0.7 WNW 20 24 11 13 1008.6 1008.3 0.0
25/04:00am 19.0 18.3 18.2 95 0.5 NW 19 26 10 14 1008.4 1008.1 0.0
25/03:30am 19.7 18.0 19.0 96 0.4 NNW 26 35 14 19 1008.2 1007.9 0.0
25/03:00am 19.7 18.7 18.9 95 0.5 NW 22 30 12 16 1008.4 1008.1 0.0
25/02:30am 19.5 18.6 18.2 92 0.8 NW 20 28 11 15 1008.8 1008.5 0.0
25/02:00am 19.3 18.2 17.4 89 1.2 NW 19 26 10 14 1008.9 1008.6 0.0
25/01:30am 19.9 17.5 17.3 85 1.6 NW 26 33 14 18 1008.9 1008.6 0.0
25/01:00am 19.8 18.9 18.3 91 0.9 NNW 20 26 11 14 1008.9 1008.6 0.0
25/12:30am 20.0 19.5 17.8 87 1.4 NNE 17 20 9 11 1009.3 1009.0 0.0
25/12:00am 19.8 18.9 16.8 83 1.8 NNE 17 20 9 11 1009.6 1009.4 0.0
 
Date/Time
EST
Temp
°C
App
Temp
°C
Dew
Point
°C
Rel
Hum
%
Delta-T
°C
Wind Press
QNH
hPa
Press
MSL
hPa
Rain since
9am
mm
Dir  Spd
km/h
Gust
km/h
Spd
kts
Gust
kts
24/11:30pm 19.8 18.2 16.1 79 2.2 NNE 19 20 10 11 1009.9 1009.7 0.0
24/11:00pm 19.7 18.2 15.4 76 2.6 N 17 19 9 10 1010.2 1010.0 0.0
24/10:30pm 19.8 18.3 15.2 75 2.7 NNE 17 20 9 11 1010.3 1010.1 0.0
24/10:00pm 19.6 18.2 14.6 73 2.9 N 15 19 8 10 1010.7 1010.5 0.0
24/09:30pm 19.4 17.8 13.8 70 3.2 N 15 17 8 9 1010.8 1010.6 0.0
24/09:00pm 19.5 18.1 13.4 68 3.5 N 13 15 7 8 1011.2 1011.0 0.0
24/08:30pm 19.5 18.6 13.7 69 3.3 N 11 13 6 7 1011.3 1011.1 0.0

Other Formats:

Comma delimited format used in spreadsheet applications
http://www.bom.gov.au/fwo/IDQ60801/IDQ60801.94594.axf

JavaScript Object Notation format (JSON) in row-major order
http://www.bom.gov.au/fwo/IDQ60801/IDQ60801.94594.json